Saturday, January 20, 2018, 3:30 AM GMT
Back to Local

CWRN, Hart Island Meteorological Aeronautical Presentation System

Location: , , Canada Lat: 45.35
Local Time: 3:30 AM GMT ( 3:30 GMT) Lon: -60.983
Time Zone: GMT Elev: 13 ft

Show me the last for .
Show Coded

Time T Td Feel RH Dir Speed Gust Alt SLP Vis Weather Sky Remarks
2018-01-20 03:00 23 17 12 78 280° 10 - - 29.88 0 None
2018-01-20 02:00 23 18 11 79 320° 14 - - 29.88 0 Peak wind: 19 mph (17 kts) from 330° at 13 min
2018-01-20 01:00 23 17 10 78 330° 15 - - 29.87 0 Peak wind: 24 mph (21 kts) from 330° at 26 min
2018-01-20 00:00 23 17 9 79 330° 16 - - 29.85 0 Peak wind: 24 mph (21 kts) from 320° at 20 min
2018-01-19 23:00 23 18 9 80 330° 18 - - 29.84 0 Peak wind: 27 mph (24 kts) from 320° at 09 min
2018-01-19 22:00 24 19 9 81 310° 22 - - 29.83 0 Peak wind: 26 mph (23 kts) from 320° at 22 min
2018-01-19 21:00 24 19 9 81 320° 21 - - 29.81 0 Peak wind: 26 mph (23 kts) from 310° at 34 min
2018-01-19 20:00 25 21 9 83 320° 20 25 - 29.79 0 Peak wind: 25 mph (22 kts) from 320° at 04 min
2018-01-19 19:00 25 20 9 81 310° 20 25 - 29.77 0 Peak wind: 25 mph (22 kts) from 320° at 57 min
2018-01-19 18:00 25 19 12 79 350° 16 - - 29.75 0 Peak wind: 20 mph (18 kts) from 320° at 20 min
2018-01-19 17:00 25 20 13 78 340° 15 - - 29.75 0 Peak wind: 19 mph (17 kts) from 340° at 12 min
2018-01-19 16:00 25 19 13 75 340° 16 - - 29.76 0 Peak wind: 20 mph (18 kts) from 340° at 54 min
2018-01-19 15:00 26 20 15 76 350° 13 - - 29.77 0 Peak wind: 19 mph (17 kts) from 350° at 17 min
2018-01-19 14:00 26 20 13 77 360° 17 - - 29.78 0 Peak wind: 23 mph (20 kts) from 0° at 11 min
2018-01-19 13:00 26 20 13 77 360° 17 - - 29.75 0 Peak wind: 26 mph (23 kts) from 350° at 22 min
2018-01-19 12:00 26 20 12 76 350° 21 - - 29.72 0 Peak wind: 26 mph (23 kts) from 330° at 43 min
2018-01-19 11:00 26 20 12 77 350° 20 - - 29.72 0 Peak wind: 26 mph (23 kts) from 350° at 36 min
2018-01-19 10:00 26 21 12 79 360° 20 - - 29.72 0 Peak wind: 25 mph (22 kts) from 340° at 35 min
2018-01-19 09:00 26 21 12 80 350° 21 - - 29.70 0 Peak wind: 29 mph (26 kts) from 340° at 02 min
2018-01-19 08:00 26 22 12 84 350° 22 - - 29.70 0 Peak wind: 26 mph (23 kts) from 350° at 57 min
2018-01-19 07:00 26 21 13 80 350° 18 - - 29.74 0 Peak wind: 24 mph (21 kts) from 340° at 02 min
2018-01-19 06:00 26 21 13 79 340° 20 - - 29.73 0 Peak wind: 24 mph (21 kts) from 350° at 33 min
2018-01-19 05:00 27 21 14 77 350° 18 - - 29.73 0 Peak wind: 25 mph (22 kts) from 340° at 40 min
2018-01-19 04:00 28 22 15 79 350° 18 - - 29.73 0 Peak wind: 24 mph (21 kts) from 320° at 25 min

Support USWX by starting your Amazon purchase here.